Time;durP1;ratioP1;P1;durP2;ratioP2;P2;SDS_P1;SDS_P2;PMS_P1;PMS_P2;Temp;Humidity;BMP_temperature;BMP_pressure;BME280_temperature;BME280_humidity;BME280_pressure;Samples;Min_cycle;Max_cycle;Signal;HPM_P1;HPM_P2
2021/12/28 00:02:14;;;;;;;34.42;17.70;;;3.90;99.90;;;;;;5033684;28;20087;-65
2021/12/28 00:04:40;;;;;;;38.17;17.90;;;3.90;99.90;;;;;;5043972;28;20048;-67
2021/12/28 00:07:06;;;;;;;34.28;18.27;;;3.90;99.90;;;;;;5033492;28;20033;-66
2021/12/28 00:09:31;;;;;;;36.63;18.35;;;4.00;99.90;;;;;;5040872;28;20040;-66
2021/12/28 00:11:57;;;;;;;36.67;17.27;;;4.00;99.90;;;;;;5045116;28;20136;-66
2021/12/28 00:14:24;;;;;;;36.30;18.50;;;4.00;99.90;;;;;;5026031;28;20208;-66
2021/12/28 00:19:33;;;;;;;35.90;18.30;;;4.00;99.90;;;;;;5013530;28;20492;-66
2021/12/28 00:21:59;;;;;;;42.30;19.60;;;4.00;99.90;;;;;;5034289;28;20033;-65
2021/12/28 00:24:25;;;;;;;38.08;19.27;;;4.00;99.90;;;;;;5037877;28;20057;-67
2021/12/28 00:26:52;;;;;;;42.22;19.42;;;4.10;99.90;;;;;;5030818;28;20041;-66
2021/12/28 00:29:18;;;;;;;40.17;19.38;;;4.10;99.90;;;;;;5029642;28;20042;-66
2021/12/28 00:31:43;;;;;;;44.10;19.30;;;4.10;99.90;;;;;;5029765;28;20063;-66
2021/12/28 00:34:09;;;;;;;46.20;20.73;;;4.10;99.90;;;;;;5042855;28;20052;-67
2021/12/28 00:36:34;;;;;;;45.20;21.33;;;4.10;99.90;;;;;;5035049;28;20053;-66
2021/12/28 00:39:00;;;;;;;50.92;21.58;;;4.10;99.90;;;;;;5041847;28;20178;-66
2021/12/28 00:41:26;;;;;;;55.65;22.45;;;4.10;99.90;;;;;;5041214;28;20072;-66
2021/12/28 00:43:52;;;;;;;56.00;22.98;;;4.10;99.90;;;;;;5038844;28;20075;-66
2021/12/28 00:46:18;;;;;;;53.97;23.00;;;4.10;99.90;;;;;;5015118;28;20425;-66
2021/12/28 00:48:43;;;;;;;53.35;22.90;;;4.20;99.90;;;;;;5044379;28;20452;-66
2021/12/28 00:51:09;;;;;;;52.42;21.83;;;4.20;99.90;;;;;;5033223;28;20436;-66
2021/12/28 00:53:34;;;;;;;58.10;23.20;;;4.20;99.90;;;;;;5045715;28;20441;-67
2021/12/28 00:56:00;;;;;;;56.95;22.38;;;4.20;99.90;;;;;;5029285;28;20131;-66
2021/12/28 00:58:26;;;;;;;55.30;23.58;;;4.20;99.90;;;;;;5012507;28;20041;-65
2021/12/28 01:00:52;;;;;;;53.42;23.27;;;4.20;99.90;;;;;;5044824;28;20456;-67
2021/12/28 01:03:19;;;;;;;55.28;22.95;;;4.20;99.90;;;;;;5035924;28;20045;-66
2021/12/28 01:05:45;;;;;;;51.25;22.90;;;4.20;99.90;;;;;;5030667;28;20124;-66
2021/12/28 01:08:11;;;;;;;52.75;21.67;;;4.20;99.90;;;;;;5029742;28;20124;-66
2021/12/28 01:10:50;;;;;;;55.67;23.00;;;4.20;99.90;;;;;;5039088;28;20683;-66
2021/12/28 01:13:17;;;;;;;56.33;24.25;;;4.20;99.90;;;;;;5038720;28;20049;-66
2021/12/28 01:15:44;;;;;;;62.78;24.50;;;4.20;99.90;;;;;;5031133;28;20045;-66
2021/12/28 01:18:10;;;;;;;62.45;25.15;;;4.30;99.90;;;;;;5046805;28;20505;-66
2021/12/28 01:20:36;;;;;;;60.05;25.48;;;4.30;99.90;;;;;;5029035;28;20044;-67
2021/12/28 01:23:03;;;;;;;75.82;26.20;;;4.30;99.90;;;;;;5037548;28;20395;-66
2021/12/28 01:25:29;;;;;;;70.93;26.70;;;4.30;99.90;;;;;;5020920;28;20053;-66
2021/12/28 01:27:54;;;;;;;79.63;28.75;;;4.30;99.90;;;;;;5030105;28;20045;-67
2021/12/28 01:30:22;;;;;;;81.40;28.63;;;4.30;99.90;;;;;;5039830;28;20449;-66
2021/12/28 01:32:50;;;;;;;91.22;31.10;;;4.40;99.90;;;;;;5034639;28;20057;-66
2021/12/28 01:35:16;;;;;;;88.25;30.83;;;4.40;99.90;;;;;;5039823;28;20464;-65
2021/12/28 01:37:43;;;;;;;104.45;31.98;;;4.50;99.90;;;;;;5035721;28;20112;-66
2021/12/28 01:40:12;;;;;;;96.28;32.05;;;4.50;99.90;;;;;;5035408;28;20037;-67
2021/12/28 01:43:01;;;;;;;110.00;34.63;;;4.60;99.90;;;;;;5037492;28;20037;-67
2021/12/28 01:45:35;;;;;;;105.85;33.80;;;4.60;99.90;;;;;;5027591;28;20054;-66
2021/12/28 01:48:01;;;;;;;116.57;34.05;;;4.60;99.90;;;;;;5031712;28;20086;-66
2021/12/28 01:50:27;;;;;;;115.68;34.88;;;4.60;99.90;;;;;;5033853;28;20594;-66
2021/12/28 01:52:53;;;;;;;119.82;36.83;;;4.60;99.90;;;;;;5039355;28;20125;-66
2021/12/28 01:55:18;;;;;;;104.35;36.22;;;4.60;99.90;;;;;;5039125;28;20468;-66
2021/12/28 01:57:44;;;;;;;121.53;36.55;;;4.70;99.90;;;;;;5038341;28;20072;-65
2021/12/28 02:00:11;;;;;;;126.40;36.38;;;4.70;99.90;;;;;;5036844;28;20040;-65
2021/12/28 02:02:36;;;;;;;136.07;38.17;;;4.70;99.90;;;;;;5032105;28;20093;-65
2021/12/28 02:05:03;;;;;;;134.18;40.45;;;4.70;99.90;;;;;;5031267;28;20057;-65
2021/12/28 02:07:29;;;;;;;142.40;39.85;;;4.80;99.90;;;;;;5046519;28;20036;-65
2021/12/28 02:09:55;;;;;;;153.50;40.47;;;4.80;99.90;;;;;;5029718;28;20069;-65
2021/12/28 02:12:21;;;;;;;190.40;45.97;;;4.80;99.90;;;;;;5031752;28;20049;-65
2021/12/28 02:14:47;;;;;;;185.93;44.58;;;4.80;99.90;;;;;;5046777;28;20052;-66
2021/12/28 02:17:14;;;;;;;130.30;36.80;;;4.80;99.90;;;;;;5028918;28;20034;-65
2021/12/28 02:19:40;;;;;;;171.65;44.38;;;4.80;99.90;;;;;;5030747;28;20045;-65
2021/12/28 02:22:05;;;;;;;176.50;41.60;;;4.80;99.90;;;;;;5039322;28;20049;-65
2021/12/28 02:24:31;;;;;;;134.40;39.28;;;4.80;99.90;;;;;;5039126;28;20091;-65
2021/12/28 02:26:57;;;;;;;155.02;41.40;;;4.80;99.90;;;;;;5044499;28;20476;-65
2021/12/28 02:29:22;;;;;;;197.63;46.95;;;4.80;99.90;;;;;;5029230;28;20042;-67
2021/12/28 02:31:50;;;;;;;161.00;42.30;;;4.80;99.90;;;;;;5029961;28;20423;-65
2021/12/28 02:34:16;;;;;;;180.05;45.13;;;4.90;99.90;;;;;;5013236;28;20037;-65
2021/12/28 02:36:42;;;;;;;188.13;45.05;;;4.90;99.90;;;;;;5031147;28;20452;-65
2021/12/28 02:39:07;;;;;;;225.40;49.47;;;4.90;99.90;;;;;;5032595;28;20190;-66
2021/12/28 02:41:33;;;;;;;164.70;43.65;;;5.00;99.90;;;;;;5038088;28;20057;-66
2021/12/28 02:44:00;;;;;;;187.45;44.58;;;5.00;99.90;;;;;;5028248;28;20358;-65
2021/12/28 02:46:26;;;;;;;210.88;48.53;;;5.00;99.90;;;;;;5055007;28;20043;-65
2021/12/28 02:48:52;;;;;;;186.82;47.53;;;5.00;99.90;;;;;;5039483;28;20043;-65
2021/12/28 02:51:18;;;;;;;198.07;46.72;;;5.10;99.90;;;;;;5031451;28;20120;-65
2021/12/28 02:53:44;;;;;;;466.85;68.68;;;5.10;99.90;;;;;;5034053;28;20508;-65
2021/12/28 02:56:11;;;;;;;159.57;43.80;;;5.10;99.90;;;;;;5047931;28;20440;-65
2021/12/28 02:58:50;;;;;;;191.00;45.00;;;5.00;99.90;;;;;;5050272;28;20040;-65
2021/12/28 03:01:20;;;;;;;200.82;47.63;;;5.10;99.90;;;;;;5034788;28;20064;-65
2021/12/28 03:03:48;;;;;;;165.05;42.65;;;5.10;99.90;;;;;;5032890;28;20042;-66
2021/12/28 03:06:17;;;;;;;215.27;47.70;;;5.10;99.90;;;;;;5044778;28;20037;-65
2021/12/28 03:08:48;;;;;;;219.02;49.45;;;5.10;99.90;;;;;;5032294;28;20053;-65
2021/12/28 03:11:14;;;;;;;206.23;47.83;;;5.10;99.90;;;;;;5042175;28;20044;-65
2021/12/28 03:13:41;;;;;;;217.35;47.80;;;5.10;99.90;;;;;;5042963;28;20098;-65
2021/12/28 03:16:08;;;;;;;157.20;41.42;;;5.10;99.90;;;;;;5015769;28;20508;-65
2021/12/28 03:18:35;;;;;;;189.20;46.28;;;5.20;99.90;;;;;;5035301;28;20068;-65
2021/12/28 03:21:01;;;;;;;195.75;46.33;;;5.20;99.90;;;;;;5026072;28;20533;-65
2021/12/28 03:23:27;;;;;;;238.75;50.53;;;5.20;99.90;;;;;;5033768;28;20041;-65
2021/12/28 03:25:54;;;;;;;205.55;47.65;;;5.20;99.90;;;;;;5032528;28;20045;-65
2021/12/28 03:28:30;;;;;;;193.57;47.47;;;5.30;99.90;;;;;;5047633;28;20044;-65
2021/12/28 03:31:00;;;;;;;225.38;48.97;;;5.30;99.90;;;;;;5039613;28;20045;-66
2021/12/28 03:33:28;;;;;;;181.40;45.20;;;5.30;99.90;;;;;;5034448;28;20037;-65
2021/12/28 03:35:55;;;;;;;244.00;50.47;;;5.30;99.90;;;;;;5031438;28;20045;-65
2021/12/28 03:38:21;;;;;;;224.43;50.10;;;5.30;99.90;;;;;;5037809;28;20033;-65
2021/12/28 03:40:47;;;;;;;180.15;43.90;;;5.30;99.90;;;;;;5015433;28;20056;-65
2021/12/28 03:43:14;;;;;;;233.60;49.92;;;5.20;99.90;;;;;;5030255;28;20042;-65
2021/12/28 03:45:39;;;;;;;199.90;47.33;;;5.20;99.90;;;;;;5033397;28;20540;-65
2021/12/28 03:48:06;;;;;;;213.20;47.17;;;5.10;99.90;;;;;;5031764;28;20057;-65
2021/12/28 03:50:33;;;;;;;242.43;50.20;;;5.20;99.90;;;;;;5044860;28;20063;-66
2021/12/28 03:52:59;;;;;;;165.00;40.90;;;5.10;99.90;;;;;;5033884;28;20088;-65
2021/12/28 03:55:25;;;;;;;209.48;46.97;;;5.10;99.90;;;;;;5017745;28;20085;-65
2021/12/28 03:57:51;;;;;;;153.85;41.60;;;5.00;99.90;;;;;;5033354;28;20041;-65
2021/12/28 04:00:19;;;;;;;133.90;38.67;;;5.00;99.90;;;;;;5013810;28;20482;-65
2021/12/28 04:02:45;;;;;;;195.95;44.67;;;5.00;99.90;;;;;;5036198;28;20056;-65
2021/12/28 04:05:11;;;;;;;219.00;46.40;;;5.00;99.90;;;;;;5034938;28;20041;-65
2021/12/28 04:07:37;;;;;;;188.35;44.25;;;4.90;99.90;;;;;;5046698;28;20039;-65
2021/12/28 04:10:04;;;;;;;214.82;46.05;;;5.00;99.90;;;;;;5029645;28;20163;-65
2021/12/28 04:12:31;;;;;;;215.73;47.55;;;5.00;99.90;;;;;;5038840;28;20053;-64
2021/12/28 04:14:57;;;;;;;219.05;49.15;;;5.10;99.90;;;;;;5033796;28;20139;-65
2021/12/28 04:17:28;;;;;;;274.35;53.58;;;5.10;99.90;;;;;;5043825;28;20089;-65
2021/12/28 04:19:54;;;;;;;308.48;56.25;;;5.20;99.90;;;;;;5049837;28;20155;-64
2021/12/28 04:22:20;;;;;;;341.83;57.35;;;5.20;99.90;;;;;;5047032;28;20053;-65
2021/12/28 04:24:46;;;;;;;238.77;48.22;;;5.20;99.90;;;;;;5037222;28;20070;-65
2021/12/28 04:27:12;;;;;;;375.00;57.70;;;5.10;99.90;;;;;;5030903;28;20049;-64
2021/12/28 04:29:38;;;;;;;347.70;58.10;;;5.20;99.90;;;;;;5032230;28;20048;-65
2021/12/28 04:32:04;;;;;;;338.13;56.75;;;5.20;99.90;;;;;;5050252;28;20147;-65
2021/12/28 04:34:30;;;;;;;334.88;54.75;;;5.20;99.90;;;;;;5033218;28;20025;-65
2021/12/28 04:36:55;;;;;;;356.45;57.55;;;5.20;99.90;;;;;;5039036;28;20507;-64
2021/12/28 04:39:21;;;;;;;414.58;61.65;;;5.10;99.90;;;;;;5037046;28;20030;-64
2021/12/28 04:41:47;;;;;;;320.90;53.58;;;5.10;99.90;;;;;;5036831;28;20053;-65
2021/12/28 04:44:13;;;;;;;225.55;43.47;;;5.10;99.90;;;;;;5039146;28;20067;-66
2021/12/28 04:46:40;;;;;;;282.10;49.88;;;5.10;99.90;;;;;;5038404;28;20520;-64
2021/12/28 04:49:06;;;;;;;234.68;46.17;;;5.10;99.90;;;;;;5033795;28;20048;-64
2021/12/28 04:51:32;;;;;;;267.98;47.88;;;5.10;99.90;;;;;;5049050;28;20033;-66
2021/12/28 04:54:00;;;;;;;296.10;48.22;;;5.10;99.90;;;;;;5039627;28;20106;-65
2021/12/28 04:56:25;;;;;;;203.52;40.88;;;5.00;99.90;;;;;;5034602;28;20060;-64
2021/12/28 04:58:51;;;;;;;225.32;44.97;;;5.00;99.90;;;;;;5033468;28;20044;-64
2021/12/28 05:01:17;;;;;;;216.30;41.45;;;5.00;99.90;;;;;;5042184;28;20044;-64
2021/12/28 05:03:42;;;;;;;210.23;42.72;;;5.00;99.90;;;;;;5032361;28;20176;-64
2021/12/28 05:06:08;;;;;;;239.15;45.13;;;5.00;99.90;;;;;;5033183;28;20061;-64
2021/12/28 05:08:33;;;;;;;227.65;43.40;;;5.00;99.90;;;;;;5033359;28;20500;-64
2021/12/28 05:10:59;;;;;;;192.15;39.67;;;5.00;99.90;;;;;;5039516;28;20378;-64
2021/12/28 05:13:25;;;;;;;204.02;40.08;;;4.90;99.90;;;;;;5030037;28;20158;-64
2021/12/28 05:15:52;;;;;;;170.15;37.15;;;4.90;99.90;;;;;;5046587;28;20510;-63
2021/12/28 05:18:19;;;;;;;154.45;33.25;;;4.90;99.90;;;;;;5033104;28;20064;-65
2021/12/28 05:20:44;;;;;;;187.30;37.85;;;4.90;99.90;;;;;;5034990;28;20025;-65
2021/12/28 05:23:11;;;;;;;178.13;35.63;;;4.90;99.90;;;;;;5044080;28;20171;-64
2021/12/28 05:25:37;;;;;;;166.45;34.90;;;4.90;99.90;;;;;;5039893;28;20049;-64
2021/12/28 05:28:04;;;;;;;185.55;38.35;;;4.80;99.90;;;;;;5037312;28;20048;-65
2021/12/28 05:30:30;;;;;;;211.30;41.20;;;4.90;99.90;;;;;;5030314;28;20128;-65
2021/12/28 05:32:56;;;;;;;213.43;39.63;;;4.80;99.90;;;;;;5033599;28;20139;-65
2021/12/28 05:35:22;;;;;;;231.30;40.20;;;4.80;99.90;;;;;;5034271;28;20029;-65
2021/12/28 05:37:47;;;;;;;156.48;35.30;;;4.80;99.90;;;;;;5033968;28;20458;-64
2021/12/28 05:40:14;;;;;;;191.85;38.20;;;4.80;99.90;;;;;;5038924;28;20200;-64
2021/12/28 05:42:40;;;;;;;208.00;39.78;;;4.80;99.90;;;;;;5037539;28;20033;-65
2021/12/28 05:45:07;;;;;;;155.82;34.13;;;4.80;99.90;;;;;;5031204;28;20486;-65
2021/12/28 05:47:32;;;;;;;193.60;37.95;;;4.80;99.90;;;;;;5039308;28;20041;-64
2021/12/28 05:49:58;;;;;;;176.38;35.95;;;4.80;99.90;;;;;;5030434;28;20057;-64
2021/12/28 05:52:24;;;;;;;174.13;36.50;;;4.80;99.90;;;;;;5038478;28;20342;-65
2021/12/28 05:54:49;;;;;;;187.35;37.83;;;4.80;99.90;;;;;;5032119;28;20045;-65
2021/12/28 05:57:15;;;;;;;179.63;36.40;;;4.80;99.90;;;;;;5046462;28;20053;-64
2021/12/28 05:59:41;;;;;;;200.52;39.50;;;4.80;99.90;;;;;;5034629;28;20135;-64
2021/12/28 06:02:07;;;;;;;179.38;35.78;;;4.80;99.90;;;;;;5030958;28;20111;-64
2021/12/28 06:04:32;;;;;;;191.25;36.30;;;4.90;99.90;;;;;;5037731;28;20056;-65
2021/12/28 06:06:58;;;;;;;195.63;39.35;;;4.80;99.90;;;;;;5033391;28;20041;-64
2021/12/28 06:09:24;;;;;;;157.85;35.65;;;4.80;99.90;;;;;;5034614;28;20410;-64
2021/12/28 06:11:49;;;;;;;194.73;36.42;;;4.90;99.90;;;;;;5044333;28;20049;-65
2021/12/28 06:14:15;;;;;;;187.07;37.55;;;4.90;99.90;;;;;;5037409;28;20364;-65
2021/12/28 06:16:41;;;;;;;163.20;35.42;;;4.90;99.90;;;;;;5047641;28;20083;-65
2021/12/28 06:19:07;;;;;;;158.05;36.00;;;4.90;99.90;;;;;;5029855;28;20038;-65
2021/12/28 06:21:34;;;;;;;153.30;34.58;;;4.90;99.90;;;;;;5043735;28;20066;-64
2021/12/28 06:24:01;;;;;;;165.23;37.03;;;4.90;99.90;;;;;;5036181;28;20037;-64
2021/12/28 06:26:27;;;;;;;169.20;36.60;;;4.90;99.90;;;;;;5030290;28;20045;-63
2021/12/28 06:28:53;;;;;;;150.18;36.10;;;4.90;99.90;;;;;;5043027;28;20045;-65
2021/12/28 06:31:19;;;;;;;172.65;38.17;;;4.90;99.90;;;;;;5028788;28;20454;-64
2021/12/28 06:33:44;;;;;;;174.32;37.35;;;4.90;99.90;;;;;;5027728;28;20041;-64
2021/12/28 06:36:10;;;;;;;182.60;37.28;;;4.90;99.90;;;;;;5030829;28;20361;-64
2021/12/28 06:38:35;;;;;;;182.77;37.42;;;4.90;99.90;;;;;;5030696;28;20397;-65
2021/12/28 06:41:01;;;;;;;157.18;35.15;;;4.90;99.90;;;;;;5041910;28;20404;-65
2021/12/28 06:43:27;;;;;;;177.02;37.30;;;4.90;99.90;;;;;;5033636;28;20041;-65
2021/12/28 06:45:55;;;;;;;137.85;34.15;;;4.90;99.90;;;;;;5038257;28;20057;-64
2021/12/28 06:48:21;;;;;;;157.20;35.55;;;4.90;99.90;;;;;;5041209;28;20044;-65
2021/12/28 06:50:47;;;;;;;132.27;32.10;;;4.90;99.90;;;;;;5044976;28;20069;-64
2021/12/28 06:53:12;;;;;;;138.52;32.35;;;4.90;99.90;;;;;;5034970;28;20063;-64
2021/12/28 06:55:38;;;;;;;129.15;32.65;;;4.90;99.90;;;;;;5035524;28;20033;-66
2021/12/28 06:58:05;;;;;;;139.95;34.25;;;4.90;99.90;;;;;;5034745;28;20099;-66
2021/12/28 07:00:31;;;;;;;126.30;32.30;;;4.90;99.90;;;;;;5019946;28;20653;-65
2021/12/28 07:02:57;;;;;;;114.28;31.50;;;4.90;99.90;;;;;;5044116;28;20041;-64
2021/12/28 07:05:22;;;;;;;130.20;32.58;;;5.00;99.90;;;;;;5036922;28;20087;-65
2021/12/28 07:07:48;;;;;;;96.07;27.83;;;5.00;99.90;;;;;;5030360;28;20044;-64
2021/12/28 07:10:14;;;;;;;107.18;29.70;;;5.00;99.90;;;;;;5029832;28;20081;-64
2021/12/28 07:12:39;;;;;;;105.95;29.95;;;5.00;99.90;;;;;;5036479;28;20071;-64
2021/12/28 07:15:06;;;;;;;92.68;27.95;;;5.00;99.90;;;;;;5029244;28;20056;-65
2021/12/28 07:17:32;;;;;;;95.68;27.55;;;5.10;99.90;;;;;;5032917;28;20107;-64
2021/12/28 07:19:58;;;;;;;84.47;26.35;;;5.00;99.90;;;;;;5036598;28;20041;-65
2021/12/28 07:22:23;;;;;;;92.07;26.95;;;5.00;99.90;;;;;;5041103;28;20045;-65
2021/12/28 07:24:49;;;;;;;96.28;27.27;;;5.00;99.90;;;;;;5047882;28;20037;-64
2021/12/28 07:27:15;;;;;;;84.18;24.65;;;5.00;99.90;;;;;;5047068;28;20120;-65
2021/12/28 07:29:40;;;;;;;73.40;25.27;;;5.00;99.90;;;;;;5037303;28;20138;-65
2021/12/28 07:32:08;;;;;;;80.20;24.67;;;5.00;99.90;;;;;;5020436;28;20059;-65
2021/12/28 07:34:34;;;;;;;91.05;26.38;;;5.00;99.90;;;;;;5042093;28;20695;-64
2021/12/28 07:37:00;;;;;;;74.65;23.52;;;4.90;99.90;;;;;;5042199;28;20452;-65
2021/12/28 07:39:25;;;;;;;75.65;23.50;;;5.00;99.90;;;;;;5040535;28;20056;-65
2021/12/28 07:41:51;;;;;;;77.90;23.58;;;5.00;99.90;;;;;;5034179;28;20061;-65
2021/12/28 07:44:17;;;;;;;71.22;22.88;;;4.90;99.90;;;;;;5041905;28;20049;-65
2021/12/28 07:46:42;;;;;;;60.08;20.85;;;4.90;99.90;;;;;;5028865;28;20045;-66
2021/12/28 07:49:08;;;;;;;61.33;20.00;;;4.90;99.90;;;;;;5014648;28;20541;-65
2021/12/28 07:51:34;;;;;;;60.25;20.73;;;4.90;99.90;;;;;;5041291;28;20357;-65
2021/12/28 07:53:59;;;;;;;61.15;20.65;;;4.90;99.90;;;;;;5051319;28;20447;-64
2021/12/28 07:56:25;;;;;;;48.67;18.38;;;4.80;99.90;;;;;;5036865;28;20635;-66
2021/12/28 07:58:51;;;;;;;57.72;20.13;;;4.80;99.90;;;;;;5034219;28;20033;-65
2021/12/28 08:01:17;;;;;;;58.45;18.63;;;4.80;99.90;;;;;;5049714;28;20054;-64
2021/12/28 08:03:42;;;;;;;51.95;18.48;;;4.80;99.90;;;;;;5053136;28;20053;-65
2021/12/28 08:06:08;;;;;;;55.50;18.90;;;4.80;99.90;;;;;;5039183;28;20034;-64
2021/12/28 08:08:34;;;;;;;57.45;18.75;;;4.90;99.90;;;;;;5032922;28;20080;-64
2021/12/28 08:11:00;;;;;;;53.85;18.77;;;4.90;99.90;;;;;;5032665;28;20044;-64
2021/12/28 08:13:25;;;;;;;46.03;17.75;;;4.90;99.90;;;;;;5031556;28;20492;-66
2021/12/28 08:15:51;;;;;;;51.28;17.83;;;5.00;99.90;;;;;;5036091;28;20063;-64
2021/12/28 08:18:16;;;;;;;45.28;18.27;;;5.00;99.90;;;;;;5041005;28;20048;-65
2021/12/28 08:20:42;;;;;;;45.90;16.65;;;5.00;99.90;;;;;;5015488;28;20068;-66
2021/12/28 08:23:08;;;;;;;44.15;17.40;;;5.00;99.90;;;;;;5035867;28;20438;-65
2021/12/28 08:25:35;;;;;;;45.22;17.10;;;5.10;99.90;;;;;;5039261;28;20049;-64
2021/12/28 08:28:04;;;;;;;38.65;15.90;;;5.10;99.90;;;;;;5033241;28;20065;-64
2021/12/28 08:30:34;;;;;;;38.67;15.95;;;5.10;99.90;;;;;;5032470;28;20381;-64
2021/12/28 08:33:01;;;;;;;47.00;15.73;;;5.10;99.90;;;;;;5042348;28;20064;-63
2021/12/28 08:35:27;;;;;;;48.30;16.95;;;5.20;99.90;;;;;;5035055;28;20477;-65
2021/12/28 08:37:53;;;;;;;39.95;15.00;;;5.20;99.90;;;;;;5036723;28;20037;-65
2021/12/28 08:40:20;;;;;;;40.28;15.32;;;5.10;99.90;;;;;;5045592;28;20084;-66
2021/12/28 08:42:46;;;;;;;37.65;14.57;;;5.10;99.90;;;;;;5031955;28;20040;-64
2021/12/28 08:45:12;;;;;;;43.60;14.70;;;5.10;99.90;;;;;;5029969;28;20100;-65
2021/12/28 08:47:38;;;;;;;39.45;13.90;;;5.10;99.90;;;;;;5047792;28;20037;-64
2021/12/28 08:50:08;;;;;;;40.33;15.07;;;5.10;99.90;;;;;;5031096;28;20034;-64
2021/12/28 08:52:34;;;;;;;39.75;13.68;;;5.10;99.90;;;;;;5035206;28;20091;-64
2021/12/28 08:55:00;;;;;;;33.40;12.88;;;5.10;99.90;;;;;;5039203;28;20079;-64
2021/12/28 08:57:26;;;;;;;38.70;13.52;;;5.10;99.90;;;;;;5029409;28;20044;-65
2021/12/28 08:59:51;;;;;;;35.50;13.20;;;5.10;99.90;;;;;;5040901;28;20099;-65
2021/12/28 09:02:17;;;;;;;34.88;12.77;;;5.10;99.90;;;;;;5036927;28;20461;-65
2021/12/28 09:04:43;;;;;;;40.80;13.80;;;5.10;99.90;;;;;;5048762;28;20444;-65
2021/12/28 09:07:16;;;;;;;34.58;13.95;;;5.20;99.90;;;;;;5035324;28;20330;-66
2021/12/28 09:09:43;;;;;;;37.80;12.68;;;5.20;99.90;;;;;;5029617;28;20038;-65
2021/12/28 09:12:09;;;;;;;33.33;12.63;;;5.20;99.90;;;;;;5043868;28;20053;-66
2021/12/28 09:14:35;;;;;;;36.50;12.25;;;5.20;99.90;;;;;;5013218;28;20114;-65
2021/12/28 09:17:02;;;;;;;30.95;12.73;;;5.20;99.90;;;;;;5031304;28;20037;-65
2021/12/28 09:19:28;;;;;;;35.53;11.90;;;5.20;99.90;;;;;;5047640;28;20063;-65
2021/12/28 09:21:54;;;;;;;36.22;12.35;;;5.20;99.90;;;;;;5048229;28;20041;-66
2021/12/28 09:24:19;;;;;;;35.58;12.55;;;5.30;99.90;;;;;;5031238;28;20084;-65
2021/12/28 09:26:45;;;;;;;32.78;13.25;;;5.40;99.90;;;;;;5043565;28;20420;-65
2021/12/28 09:29:11;;;;;;;32.80;11.98;;;5.50;99.90;;;;;;5030664;28;20041;-66
2021/12/28 09:31:37;;;;;;;35.38;11.55;;;5.50;99.90;;;;;;5030327;28;20068;-66
2021/12/28 09:34:03;;;;;;;33.83;11.50;;;5.60;99.90;;;;;;5032693;28;20038;-64
2021/12/28 09:36:29;;;;;;;29.23;10.73;;;5.60;99.90;;;;;;5029936;28;20038;-65
2021/12/28 09:38:55;;;;;;;33.72;11.52;;;5.70;99.90;;;;;;5038245;28;20037;-66
2021/12/28 09:41:21;;;;;;;31.52;11.48;;;5.80;99.90;;;;;;5035255;28;20749;-66
2021/12/28 09:43:46;;;;;;;32.10;11.40;;;5.80;99.90;;;;;;5031034;28;20061;-65
2021/12/28 09:46:12;;;;;;;30.08;11.65;;;5.90;99.90;;;;;;5032237;28;20025;-66
2021/12/28 09:48:38;;;;;;;34.55;10.93;;;5.90;99.90;;;;;;5030075;28;20149;-65
2021/12/28 09:51:06;;;;;;;33.45;11.85;;;6.00;99.90;;;;;;5042094;28;20037;-65
2021/12/28 09:53:33;;;;;;;35.50;10.38;;;6.00;99.90;;;;;;5030492;28;20037;-65
2021/12/28 09:55:59;;;;;;;33.47;11.52;;;6.00;99.90;;;;;;5037256;28;20052;-66
2021/12/28 09:58:25;;;;;;;36.67;11.02;;;6.00;99.90;;;;;;5030246;28;20033;-65
2021/12/28 10:00:50;;;;;;;27.48;10.13;;;6.10;99.90;;;;;;5029356;28;20053;-65
2021/12/28 10:03:18;;;;;;;27.27;8.90;;;6.10;99.90;;;;;;5045261;28;20110;-66
2021/12/28 10:05:44;;;;;;;30.13;11.25;;;6.10;99.90;;;;;;5029685;28;20095;-65
2021/12/28 10:08:13;;;;;;;29.77;10.48;;;6.10;99.90;;;;;;5030160;28;20060;-65
2021/12/28 10:10:42;;;;;;;28.33;10.70;;;6.20;99.90;;;;;;5029803;28;20049;-65
2021/12/28 10:13:16;;;;;;;25.05;9.85;;;6.20;99.90;;;;;;5041349;28;20475;-65
2021/12/28 10:15:43;;;;;;;30.33;10.13;;;6.20;99.90;;;;;;5025942;28;20036;-65
2021/12/28 10:18:10;;;;;;;31.42;9.48;;;6.20;99.90;;;;;;5044846;28;20077;-65
2021/12/28 10:20:50;;;;;;;29.63;9.85;;;6.20;99.90;;;;;;5038812;28;20132;-65
2021/12/28 10:23:19;;;;;;;30.63;9.20;;;6.20;99.90;;;;;;5049785;28;20443;-65
2021/12/28 10:25:57;;;;;;;25.02;9.70;;;6.30;99.90;;;;;;5049241;28;20079;-66
2021/12/28 10:28:38;;;;;;;30.02;8.73;;;6.30;99.90;;;;;;5025068;28;20555;-65
2021/12/28 10:31:18;;;;;;;24.83;9.63;;;6.40;99.90;;;;;;5040397;28;20102;-64
2021/12/28 10:33:44;;;;;;;;;;;6.40;99.90;;;;;;5037465;28;20044;-64
2021/12/28 10:36:16;;;;;;;31.67;8.85;;;6.50;99.90;;;;;;5041621;28;19917;-64
2021/12/28 10:38:51;;;;;;;26.35;9.50;;;6.50;99.90;;;;;;5035913;28;20108;-65
2021/12/28 10:41:22;;;;;;;25.13;9.35;;;6.50;99.90;;;;;;5048690;28;20056;-66
2021/12/28 10:43:50;;;;;;;29.13;9.27;;;6.60;99.90;;;;;;5048410;28;20045;-67
2021/12/28 10:46:19;;;;;;;21.85;8.82;;;6.60;99.90;;;;;;5046650;28;20090;-66
2021/12/28 10:48:49;;;;;;;30.65;9.30;;;6.60;99.90;;;;;;5050206;28;20083;-66
2021/12/28 10:51:20;;;;;;;33.92;10.10;;;6.60;99.90;;;;;;5049268;28;20558;-66
2021/12/28 10:56:25;;;;;;;26.98;9.05;;;6.60;99.90;;;;;;5028629;28;20045;-65
2021/12/28 10:58:52;;;;;;;28.45;9.60;;;6.70;99.90;;;;;;5028163;28;20351;-65
2021/12/28 11:01:22;;;;;;;30.80;9.73;;;6.70;99.90;;;;;;5032610;28;20040;-65
2021/12/28 11:04:00;;;;;;;34.65;11.00;;;6.70;99.90;;;;;;5049129;28;20087;-65
2021/12/28 11:06:31;;;;;;;32.83;10.25;;;6.70;99.90;;;;;;5050319;28;20055;-65
2021/12/28 11:09:12;;;;;;;29.95;10.63;;;6.70;99.90;;;;;;5042284;28;20094;-66
2021/12/28 11:11:40;;;;;;;40.35;10.63;;;6.70;99.90;;;;;;5041956;28;20373;-66
2021/12/28 11:14:19;;;;;;;32.55;10.15;;;6.80;99.90;;;;;;5014178;28;20136;-65
2021/12/28 11:17:04;;;;;;;30.70;10.85;;;6.80;99.90;;;;;;5033010;28;20567;-65
2021/12/28 11:19:33;;;;;;;29.10;10.70;;;6.80;99.90;;;;;;5038394;28;20033;-65
2021/12/28 11:22:08;;;;;;;33.05;10.27;;;6.80;99.90;;;;;;5036047;28;20036;-65
2021/12/28 11:24:39;;;;;;;32.42;10.57;;;6.80;99.90;;;;;;5040162;28;20064;-65
2021/12/28 11:27:07;;;;;;;34.83;11.15;;;6.90;99.90;;;;;;5039323;28;20118;-65
2021/12/28 11:29:38;;;;;;;30.08;11.05;;;6.90;99.90;;;;;;5039365;28;20047;-66
2021/12/28 11:32:16;;;;;;;29.65;10.30;;;6.90;99.90;;;;;;5037946;28;20123;-65
2021/12/28 11:34:42;;;;;;;33.85;10.75;;;6.90;99.90;;;;;;5029090;28;20128;-66
2021/12/28 11:37:19;;;;;;;28.73;11.02;;;6.90;99.90;;;;;;5040951;28;20094;-64
2021/12/28 11:39:48;;;;;;;35.17;10.80;;;6.90;99.90;;;;;;5034965;28;20124;-64
2021/12/28 11:42:16;;;;;;;26.90;9.98;;;6.90;99.90;;;;;;5031865;28;20060;-65
2021/12/28 11:44:42;;;;;;;27.67;10.20;;;6.90;99.90;;;;;;5047672;28;20129;-67
2021/12/28 11:47:11;;;;;;;29.17;10.23;;;7.00;99.90;;;;;;5038165;28;20594;-65
2021/12/28 11:49:40;;;;;;;27.85;10.50;;;7.00;99.90;;;;;;5031516;28;20428;-65
2021/12/28 11:52:09;;;;;;;31.20;10.57;;;7.00;99.90;;;;;;5042863;28;20040;-65
2021/12/28 11:54:38;;;;;;;31.05;11.05;;;7.00;99.90;;;;;;5048743;28;20379;-66
2021/12/28 11:57:12;;;;;;;32.53;11.60;;;7.00;99.90;;;;;;5040207;28;20029;-65
2021/12/28 11:59:39;;;;;;;32.97;12.00;;;7.00;99.90;;;;;;5048621;28;20106;-65
2021/12/28 12:02:12;;;;;;;36.55;12.32;;;7.10;99.90;;;;;;5035445;28;20045;-66
2021/12/28 12:04:39;;;;;;;31.73;11.40;;;7.00;99.90;;;;;;5044866;28;20068;-68
2021/12/28 12:07:12;;;;;;;33.13;11.88;;;7.10;99.90;;;;;;5046676;28;20136;-66
2021/12/28 12:09:50;;;;;;;33.33;12.00;;;7.10;99.90;;;;;;5052002;28;20037;-67
2021/12/28 12:12:27;;;;;;;42.50;12.57;;;7.10;99.90;;;;;;5045339;28;20064;-67
2021/12/28 12:14:58;;;;;;;34.10;11.73;;;7.10;99.90;;;;;;5043684;28;20045;-66
2021/12/28 12:17:24;;;;;;;34.70;12.25;;;7.20;99.90;;;;;;5029561;28;20096;-66
2021/12/28 12:19:50;;;;;;;27.02;11.18;;;7.20;99.90;;;;;;5032373;28;20041;-67
2021/12/28 12:23:00;;;;;;;34.05;12.45;;;7.20;99.90;;;;;;5033521;28;20038;-65
2021/12/28 12:25:42;;;;;;;33.83;12.80;;;7.20;99.90;;;;;;5007181;28;20188;-66
2021/12/28 12:28:09;;;;;;;38.08;13.75;;;7.20;99.90;;;;;;5041834;28;20284;-65
2021/12/28 12:30:48;;;;;;;34.17;13.25;;;7.20;99.90;;;;;;5031684;28;20041;-65
2021/12/28 12:33:16;;;;;;;44.88;14.95;;;7.20;99.90;;;;;;5033863;28;20045;-65
2021/12/28 12:35:42;;;;;;;33.55;13.90;;;7.20;99.90;;;;;;5034875;28;20068;-66
2021/12/28 12:38:14;;;;;;;39.40;14.52;;;7.20;99.90;;;;;;5031937;28;20037;-66
2021/12/28 12:41:01;;;;;;;34.72;13.65;;;7.20;99.90;;;;;;5037138;28;20175;-65